Los Posos, Valles Caldera, New Mexico Weather observations

Data are for 10 minute period ending at time listed.
 Day   Time   Solar   Ave.   Ave.  Ave.  Vector  Max.   Baro.   Total    
  of    of     Rad.   Air    Rel.  Wind   Wind   Wind  Press.  Precip.   
Year   Day            Temp.  Hum.  Speed  Dir.   Gust                    
2017   (MST)  Kw/m2    F      %     mph   deg.    mph    mb.     in.     
-------------------------------------------------------------------------
  56   21:30   0.00   23.2    36    4.1   231     6.0   99999.0    0.00 
  56   21:40   0.00   23.3    36    5.1   205     9.0   99999.0    0.00 
  56   21:50   0.00   23.1    36    4.1   218     7.2   99999.0    0.00 
  56   22:00   0.00   22.5    37    3.7   209     7.2   99999.0    0.00 
  56   22:10   0.00   22.7    36    5.0   224     8.4   99999.0    0.00 
  56   22:20   0.00   23.2    34    5.0   217    10.2   99999.0    0.00 
  56   22:30   0.00   23.1    34    4.4   204     8.4   99999.0    0.00 
  56   22:40   0.00   23.1    35    4.4   211     7.8   99999.0    0.00 
  56   22:50   0.00   22.4    37    4.9   205     8.4   99999.0    0.00 
  56   23:00   0.00   22.6    36    4.0   215     7.8   99999.0    0.00 
  56   23:10   0.00   22.1    37    4.4   210     7.8   99999.0    0.00 
  56   23:20   0.00   22.0    37    4.5   209     9.0   99999.0    0.00 
  56   23:30   0.00   22.6    36    5.4   210    11.9   99999.0    0.00 
  56   23:40   0.00   22.0    39    2.8   209     6.6   99999.0    0.00 
  56   23:50   0.00   21.9    40    4.3   227     9.6   99999.0    0.00 
  57    0:00   0.00   22.4    40    4.4   229     9.6   99999.0    0.00 
  57    0:10   0.00   22.2    41    4.3   241     9.0   99999.0    0.00 
  57    0:20   0.00   22.6    42    6.3   248    11.3   99999.0    0.00 
  57    0:30   0.00   22.3    44    4.5   234     9.6   99999.0    0.00 
  57    0:40   0.00   21.8    44    3.9   232     9.0   99999.0    0.00 
  57    0:50   0.00   21.7    45    5.5   236    13.1   99999.0    0.00 
  57    1:00   0.00   21.7    45    3.8   233     8.4   99999.0    0.00 
  57    1:10   0.00   21.2    46    3.4   234     7.2   99999.0    0.00 
  57    1:20   0.00   20.5    48    3.1   215     6.6   99999.0    0.00 
  57    1:30   0.00   19.6    49    3.5   232     6.0   99999.0    0.00 
  57    1:40   0.00   18.6    52    2.5   233     5.4   99999.0    0.00 
  57    1:50   0.00   18.4    52    2.8   230     7.8   99999.0    0.00 
  57    2:00   0.00   19.3    51    2.4   227     4.8   99999.0    0.00 
  57    2:10   0.00   19.2    52    4.1   227     7.8   99999.0    0.00 
  57    2:20   0.00   20.2    51    4.1   250    10.8   99999.0    0.00 
  57    2:30   0.00   20.3    52    4.7   238    10.2   99999.0    0.00 
  57    2:40   0.00   20.6    54    6.7   273    14.9   99999.0    0.00 
  57    2:50   0.00   20.8    55    7.2   280    17.9   99999.0    0.00 
  57    3:00   0.00   20.7    56    6.4   263    13.7   99999.0    0.00 
  57    3:10   0.00   20.4    60    6.3   271    14.9   99999.0    0.00 
  57    3:20   0.00   20.2    62    6.2   284    11.9   99999.0    0.00 
  57    3:30   0.00   19.9    64    6.0   260    12.5   99999.0    0.00 
  57    3:40   0.00   19.8    65    7.0   295    11.9   99999.0    0.00 
  57    3:50   0.00   19.6    66    5.3   290    11.9   99999.0    0.00 
  57    4:00   0.00   19.4    69    8.3   292    16.1   99999.0    0.00 
  57    4:10   0.00   19.0    71    6.6   286    13.7   99999.0    0.00 
  57    4:20   0.00   18.8    73    7.1   289    13.7   99999.0    0.00 
  57    4:30   0.00   18.6    74    6.4   297    12.5   99999.0    0.00 
  57    4:40   0.00   18.4    77    4.3   315     7.2   99999.0    0.00 
  57    4:50   0.00   17.9    81    4.9   322     9.0   99999.0    0.00 
  57    5:00   0.00   17.6    84    4.6   335     7.8   99999.0    0.00 
  57    5:10   0.00   17.4    86    4.6   326     7.8   99999.0    0.00 
  57    5:20   0.00   17.3    86    3.2   314     8.4   99999.0    0.00 
  57    5:30   0.00   17.4    86    3.0   313     6.0   99999.0    0.00 
  57    5:40   0.00   17.4    87    3.2   324     7.2   99999.0    0.00 
  57    5:50   0.00   17.5    86    4.6   309     9.6   99999.0    0.00 
  57    6:00   0.00   17.5    86    5.2   331     9.6   99999.0    0.00 
  57    6:10   0.00   17.6    83    7.6   316    13.1   99999.0    0.00 
  57    6:20   0.00   17.6    81    6.2   298    10.2   99999.0    0.00 
  57    6:30   0.00   17.4    80    5.6   284    14.3   99999.0    0.00 
  57    6:40   0.00   17.2    79    4.5   286     9.6   99999.0    0.00 
  57    6:50   0.01   17.0    78    5.1   282    11.9   99999.0    0.00 
  57    7:00   0.01   16.9    75    5.3   291    10.2   99999.0    0.00 
  57    7:10   0.01   16.6    75    3.3   260     6.6   99999.0    0.00 
  57    7:20   0.02   16.4    76    3.4   262     9.0   99999.0    0.00 
  57    7:30   0.02   16.7    76    4.9   267     9.6   99999.0    0.00 
  57    7:40   0.10   17.6    73    5.2   294     9.6   99999.0    0.00 
  57    7:50   0.21   20.2    66    6.2   285    13.1   99999.0    0.00 
  57    8:00   0.25   20.2    64    8.1   296    13.7   99999.0    0.00 
  57    8:10   0.26   19.9    65    8.3   296    14.9   99999.0    0.00 
  57    8:20   0.21   20.1    65    7.9   299    14.3   99999.0    0.00 
  57    8:30   0.28   20.3    64    7.7   292    14.3   99999.0    0.00 
  57    8:40   0.37   21.5    62    8.6   297    13.7   99999.0    0.00 
  57    8:50   0.20   20.8    64    8.3   297    13.7   99999.0    0.00 
  57    9:00   0.34   20.9    63    8.1   290    18.5   99999.0    0.00 
  57    9:10   0.34   21.2    62    9.5   294    17.3   99999.0    0.00 
  57    9:20   0.45   22.5    61    7.7   303    14.9   99999.0    0.00 
  57    9:30   0.52   24.0    56    7.7   293    13.1   99999.0    0.00 
  57    9:40   0.44   23.1    56    8.6   304    14.9   99999.0    0.00 
  57    9:50   0.55   23.5    54    8.1   299    13.1   99999.0    0.00 
  57   10:00   0.62   26.7    49    8.8   310    18.5   99999.0    0.00 
  57   10:10   0.63   25.8    50    7.6   301    12.5   99999.0    0.00 
  57   10:20   0.49   26.6    49    8.6   310    17.3   99999.0    0.00 
  57   10:30   0.42   25.7    52    4.7   290     8.4   99999.0    0.00 
  57   10:40   0.69   26.8    50    6.3   290    12.5   99999.0    0.00 
  57   10:50   0.61   27.5    50    7.8   302    18.5   99999.0    0.00 
  57   11:00   0.43   26.5    53    7.6   303    14.9   99999.0    0.00 
  57   11:10   0.41   24.9    58    8.8   315    13.1   99999.0    0.00 
  57   11:20   0.47   25.9    54    6.8   297    13.1   99999.0    0.00 
  57   11:30   0.81   27.1    50    8.2   286    14.9   99999.0    0.00 
  57   11:40   0.75   27.7    48    8.6   270    17.3   99999.0    0.00 
  57   11:50   0.56   29.0    47    5.9   296    12.5   99999.0    0.00 
  57   12:00   0.48   26.8    47    9.9   292    16.7   99999.0    0.00 
  57   12:10   0.56   26.7    47    8.9   277    17.3   99999.0    0.00 
  57   12:20   0.51   26.5    48    9.2   290    19.1   99999.0    0.00 
  57   12:30   0.61   27.9    47    8.2   292    13.1   99999.0    0.00 
  57   12:40   0.53   27.7    49    8.0   303    13.7   99999.0    0.00 
  57   12:50   0.53   27.3    51    8.8   278    13.7   99999.0    0.00 
  57   13:00   0.63   27.7    52    7.9   289    13.7   99999.0    0.00 
  57   13:10   0.44   28.0    52    8.2   263    16.1   99999.0    0.00 
  57   13:20   0.40   26.1    56    8.7   274    14.9   99999.0    0.00 
  57   13:30   0.48   26.5    57    9.0   233    16.1   99999.0    0.00 
  57   13:40   0.42   25.7    60    9.5   234    16.1   99999.0    0.00 
  57   13:50   0.44   25.2    63   10.4   235    18.5   99999.0    0.00 
  57   14:00   0.41   25.6    64    8.6   241    17.3   99999.0    0.00 
  57   14:10   0.36   25.2    65    8.2   228    16.1   99999.0    0.00 
  57   14:20   0.49   26.1    63    7.9   246    14.3   99999.0    0.00 
  57   14:30   0.59   27.5    60    6.6   257    13.7   99999.0    0.00 
  57   14:40   0.44   27.8    59    7.7   286    14.3   99999.0    0.00 
  57   14:50   0.35   25.6    65    8.8   270    14.9   99999.0    0.00 
  57   15:00   0.39   26.0    63    7.5   275    14.9   99999.0    0.00 
  57   15:10   0.37   27.0    60    6.1   280    12.5   99999.0    0.00 
  57   15:20   0.28   26.3    64    7.5   271    15.5   99999.0    0.00 
  57   15:30   0.28   25.0    68    7.0   278    13.1   99999.0    0.00 
  57   15:40   0.20   25.4    65    8.0   290    14.9   99999.0    0.00 
  57   15:50   0.20   25.9    62    6.0   246    11.9   99999.0    0.00 
  57   16:00   0.11   25.3    64    6.4   234    11.9   99999.0    0.00 
  57   16:10   0.20   26.4    60    4.4   248     9.6   99999.0    0.00 
  57   16:20   0.12   26.4    58    6.5   258    13.1   99999.0    0.00 
  57   16:30   0.12   25.7    57    7.5   253    14.9   99999.0    0.00 
  57   16:40   0.18   26.6    56    6.2   268    10.8   99999.0    0.00 
  57   16:50   0.07   25.9    59    7.0   287    12.5   99999.0    0.00 
  57   17:00   0.07   25.4    61    5.8   273    10.8   99999.0    0.00 
  57   17:10   0.10   25.9    60    7.5   242    13.1   99999.0    0.00 
  57   17:20   0.07   25.9    60    7.6   235    12.5   99999.0    0.00 
  57   17:30   0.04   25.5    62    5.8   250     9.0   99999.0    0.00 
  57   17:40   0.02   25.2    62    5.4   254    10.2   99999.0    0.00 
  57   17:50   0.01   25.2    62    3.8   238     6.6   99999.0    0.00 
  57   18:00   0.01   25.1    62    4.8   251    10.2   99999.0    0.00 
  57   18:10   0.00   24.9    61    6.5   285    11.3   99999.0    0.00 
  57   18:20   0.00   24.7    61    5.2   262    11.9   99999.0    0.00 
  57   18:30   0.00   24.5    61    6.7   248    13.1   99999.0    0.00 
  57   18:40   0.00   24.2    61    3.7   248    10.8   99999.0    0.00 
  57   18:50   0.00   23.9    62    3.3   221     5.4   99999.0    0.00 
  57   19:00   0.00   24.0    62    3.6   216     7.2   99999.0    0.00 
  57   19:10   0.00   24.0    62    2.6   221     4.2   99999.0    0.00 
  57   19:20   0.00   23.7    63    1.9   220     3.6   99999.0    0.00 
  57   19:30   0.00   23.1    64    2.5   211     4.8   99999.0    0.00 
  57   19:40   0.00   22.7    65    2.1   179     3.6   99999.0    0.00 
  57   19:50   0.00   21.7    67    2.3   201     3.6   99999.0    0.00 
  57   20:00   0.00   20.5    70    2.7   214     4.2   99999.0    0.00 
  57   20:10   0.00   20.0    70    2.3   211     3.6   99999.0    0.00 
  57   20:20   0.00   18.7    73    2.5   210     3.6   99999.0    0.00 
  57   20:30   0.00   18.0    75    2.7   226     4.8   99999.0    0.00 
  57   20:40   0.00   17.7    76    2.6   230     4.8   99999.0    0.00 
  57   20:50   0.00   18.7    75    2.9   216     4.8   99999.0    0.00 
  57   21:00   0.00   19.8    74    3.5   214     6.6   99999.0    0.00 
  57   21:10   0.00   20.5    72    2.7   205     6.6   99999.0    0.00 
  57   21:20   0.00   20.3    72    2.0   226     4.8   99999.0    0.00 

Return to Los Posos, Valles Caldera graphs page.


Western Regional Climate Center,wrcc@dri.edu